createdAt,value
2023-03-19T00:00:34.014Z,23.02
2023-03-19T00:03:01.063Z,25.80
2023-03-19T00:05:27.611Z,23.17
2023-03-19T00:07:54.091Z,24.13
2023-03-19T00:10:21.282Z,19.95
2023-03-19T00:12:47.758Z,20.42
2023-03-19T00:15:15.378Z,18.75
2023-03-19T00:17:43.001Z,17.77
2023-03-19T00:20:11.684Z,20.52
2023-03-19T00:22:38.415Z,18.00
2023-03-19T00:25:05.480Z,16.67
2023-03-19T00:27:32.012Z,20.73
2023-03-19T00:29:58.483Z,18.52
2023-03-19T00:32:25.721Z,14.82
2023-03-19T00:34:52.868Z,20.85
2023-03-19T00:37:19.342Z,20.63
2023-03-19T00:39:45.806Z,15.68
2023-03-19T00:42:12.982Z,17.27
2023-03-19T00:44:39.500Z,18.55
2023-03-19T00:47:07.281Z,20.15
2023-03-19T00:49:33.774Z,20.25
2023-03-19T00:52:00.304Z,20.35
2023-03-19T00:54:27.424Z,21.33
2023-03-19T00:56:53.932Z,19.85
2023-03-19T00:59:20.601Z,20.92
2023-03-19T01:01:47.210Z,19.55
2023-03-19T01:04:14.874Z,17.58
2023-03-19T01:06:41.804Z,18.77
2023-03-19T01:09:08.390Z,19.77
2023-03-19T01:11:35.219Z,19.30
2023-03-19T01:14:02.790Z,19.77
2023-03-19T01:16:29.521Z,22.13
2023-03-19T01:18:56.086Z,21.13
2023-03-19T01:21:22.609Z,22.38
2023-03-19T01:23:49.283Z,21.45
2023-03-19T01:26:16.631Z,20.27
2023-03-19T01:28:43.447Z,20.52
2023-03-19T01:31:10.649Z,18.60
2023-03-19T01:33:37.643Z,18.95
2023-03-19T01:36:05.498Z,18.27
2023-03-19T01:38:32.496Z,17.98
2023-03-19T01:40:58.984Z,19.25
2023-03-19T01:43:30.809Z,20.35
2023-03-19T01:46:01.729Z,19.63
2023-03-19T01:48:38.481Z,23.40
2023-03-19T01:51:07.560Z,21.35
2023-03-19T01:53:36.056Z,22.58
2023-03-19T01:56:25.649Z,24.90
2023-03-19T01:58:56.608Z,23.15
2023-03-19T02:01:23.293Z,20.48
2023-03-19T02:03:52.655Z,23.80
2023-03-19T02:06:21.673Z,22.25
2023-03-19T02:08:51.376Z,21.92
2023-03-19T02:11:18.828Z,20.08
2023-03-19T02:13:46.155Z,20.65
2023-03-19T02:16:12.715Z,18.30
2023-03-19T02:18:39.193Z,22.13
2023-03-19T02:21:08.247Z,23.17
2023-03-19T02:23:34.861Z,26.17
2023-03-19T02:26:08.968Z,18.65
2023-03-19T02:28:39.743Z,21.45
2023-03-19T02:31:07.465Z,24.88
2023-03-19T02:33:34.364Z,20.95
2023-03-19T02:36:03.322Z,20.60
2023-03-19T02:38:32.599Z,21.83
2023-03-19T02:41:05.376Z,20.30
2023-03-19T02:43:34.229Z,20.08
2023-03-19T02:46:06.327Z,25.17
2023-03-19T02:48:33.126Z,20.88
2023-03-19T02:51:02.325Z,20.13
2023-03-19T02:53:28.741Z,23.42
2023-03-19T02:55:55.631Z,19.75
2023-03-19T02:58:22.169Z,21.02
2023-03-19T03:00:48.697Z,19.67
2023-03-19T03:03:15.235Z,19.83
2023-03-19T03:05:41.803Z,23.48
2023-03-19T03:08:09.302Z,22.42
2023-03-19T03:10:35.983Z,19.95
2023-03-19T03:13:02.501Z,19.58
2023-03-19T03:15:29.668Z,20.15
2023-03-19T03:17:56.878Z,25.63
2023-03-19T03:20:24.827Z,20.75
2023-03-19T03:22:54.263Z,23.77
2023-03-19T03:25:21.300Z,20.77
2023-03-19T03:27:48.057Z,26.27
2023-03-19T03:30:16.161Z,22.05
2023-03-19T03:32:43.447Z,23.95
2023-03-19T03:35:18.067Z,24.05
2023-03-19T03:37:44.515Z,22.60
2023-03-19T03:40:11.504Z,23.52
2023-03-19T03:42:38.026Z,25.40
2023-03-19T03:45:04.964Z,22.15
2023-03-19T03:47:31.528Z,23.35
2023-03-19T03:49:58.031Z,24.30
2023-03-19T03:52:26.625Z,21.98
2023-03-19T03:54:53.085Z,19.92
2023-03-19T03:57:19.535Z,24.00
2023-03-19T03:59:46.472Z,21.83
2023-03-19T04:02:12.976Z,22.10
2023-03-19T04:04:39.414Z,22.85
2023-03-19T04:07:06.714Z,25.05
2023-03-19T04:09:33.164Z,22.23
2023-03-19T04:12:00.296Z,21.02
2023-03-19T04:14:35.648Z,19.10
2023-03-19T04:19:28.538Z,20.70
2023-03-19T04:21:57.578Z,26.92
2023-03-19T04:24:24.229Z,21.85
2023-03-19T04:26:51.128Z,23.63
2023-03-19T04:29:18.688Z,22.60
2023-03-19T04:31:45.786Z,21.35
2023-03-19T04:34:12.935Z,26.88
2023-03-19T04:36:39.419Z,26.98
2023-03-19T04:39:05.983Z,21.83
2023-03-19T04:41:38.627Z,21.60
2023-03-19T04:44:05.213Z,25.85
2023-03-19T04:46:31.809Z,23.02
2023-03-19T04:48:59.800Z,22.88
2023-03-19T04:51:26.320Z,21.65
2023-03-19T04:53:52.825Z,20.35
2023-03-19T04:56:19.366Z,21.75
2023-03-19T04:58:46.129Z,24.20
2023-03-19T05:01:13.208Z,20.42
2023-03-19T05:03:44.344Z,19.50
2023-03-19T05:06:11.756Z,21.02
2023-03-19T05:08:38.338Z,24.55
2023-03-19T05:11:05.244Z,17.83
2023-03-19T05:13:31.671Z,21.13
2023-03-19T05:15:58.200Z,21.15
2023-03-19T05:18:24.695Z,22.58
2023-03-19T05:20:51.220Z,21.70
2023-03-19T05:23:17.996Z,19.08
2023-03-19T05:25:50.365Z,18.08
2023-03-19T05:28:17.403Z,15.38
2023-03-19T05:30:44.092Z,19.83
2023-03-19T05:33:10.695Z,16.70
2023-03-19T05:35:37.807Z,18.70
2023-03-19T05:38:04.338Z,19.00
2023-03-19T05:40:32.020Z,17.33
2023-03-19T05:42:58.599Z,14.10
2023-03-19T05:45:25.662Z,15.18
2023-03-19T05:47:52.125Z,17.05
2023-03-19T05:50:19.350Z,14.80
2023-03-19T05:52:45.985Z,5.65
2023-03-19T05:55:12.506Z,12.05
2023-03-19T05:57:39.564Z,11.00
2023-03-19T06:00:07.649Z,11.88
2023-03-19T06:02:35.437Z,18.30
2023-03-19T06:05:02.144Z,15.45
2023-03-19T06:07:28.622Z,14.77
2023-03-19T06:09:55.241Z,15.07
2023-03-19T06:12:22.004Z,11.43
2023-03-19T06:14:48.493Z,19.45
2023-03-19T06:17:15.351Z,15.73
2023-03-19T06:19:41.824Z,17.38
2023-03-19T06:22:08.946Z,14.13
2023-03-19T06:24:40.932Z,5.22
2023-03-19T06:27:07.729Z,14.82
2023-03-19T06:29:34.199Z,14.63
2023-03-19T06:32:00.711Z,16.08
2023-03-19T06:34:27.570Z,13.35
2023-03-19T06:37:20.369Z,11.65
2023-03-19T06:39:46.900Z,17.35
2023-03-19T06:42:13.464Z,15.52
2023-03-19T06:44:40.014Z,11.13
2023-03-19T06:47:08.521Z,6.90
2023-03-19T06:49:35.448Z,5.70
2023-03-19T06:52:02.014Z,16.55
2023-03-19T06:54:28.501Z,17.95
2023-03-19T06:56:54.992Z,17.23
2023-03-19T06:59:21.430Z,11.02
2023-03-19T07:01:47.893Z,17.83
2023-03-19T07:04:14.434Z,19.40
2023-03-19T07:06:40.908Z,18.17
2023-03-19T07:09:07.869Z,13.45
2023-03-19T07:11:35.909Z,17.85
2023-03-19T07:14:02.967Z,16.77
2023-03-19T07:16:29.589Z,14.93
2023-03-19T07:18:56.831Z,16.42
2023-03-19T07:21:23.753Z,25.10
2023-03-19T07:23:52.747Z,21.25
2023-03-19T07:26:19.316Z,32.60
2023-03-19T07:28:46.053Z,24.85
2023-03-19T07:31:13.049Z,24.92
2023-03-19T07:33:39.584Z,25.23
2023-03-19T07:36:07.140Z,25.67
2023-03-19T07:38:33.702Z,24.33
2023-03-19T07:41:02.814Z,25.98
2023-03-19T07:43:30.238Z,21.42
2023-03-19T07:45:56.871Z,24.52
2023-03-19T07:48:23.367Z,19.65
2023-03-19T07:50:51.303Z,22.75
2023-03-19T07:53:18.428Z,20.42
2023-03-19T07:55:44.913Z,16.60
2023-03-19T07:58:11.712Z,14.88
2023-03-19T08:00:38.183Z,14.98
2023-03-19T08:03:04.706Z,15.00
2023-03-19T08:05:31.196Z,21.45
2023-03-19T08:07:57.697Z,15.65
2023-03-19T08:10:24.198Z,15.70
2023-03-19T08:12:50.885Z,16.58
2023-03-19T08:15:17.653Z,16.25
2023-03-19T08:17:56.585Z,16.48
2023-03-19T08:20:23.113Z,19.55
2023-03-19T08:22:51.030Z,21.25
2023-03-19T08:25:17.913Z,17.98
2023-03-19T08:27:44.390Z,14.52
2023-03-19T08:30:11.845Z,16.10
2023-03-19T08:32:38.342Z,19.48
2023-03-19T08:35:06.093Z,15.38
2023-03-19T08:37:32.756Z,22.58
2023-03-19T08:39:59.231Z,20.75
2023-03-19T08:42:25.708Z,21.95
2023-03-19T08:44:52.150Z,26.98
2023-03-19T08:47:18.856Z,27.45
2023-03-19T08:49:45.351Z,20.40
2023-03-19T08:52:11.968Z,14.60
2023-03-19T08:54:38.444Z,16.20
2023-03-19T08:57:04.966Z,15.60
2023-03-19T08:59:34.069Z,13.52
2023-03-19T09:02:01.670Z,14.85
2023-03-19T09:04:28.412Z,14.20
2023-03-19T09:06:55.053Z,15.45
2023-03-19T09:09:24.028Z,12.75
2023-03-19T09:11:50.822Z,1.80
2023-03-19T09:14:19.860Z,20.83
2023-03-19T09:16:46.767Z,14.18
2023-03-19T09:19:13.297Z,16.85
2023-03-19T09:21:39.937Z,18.85
2023-03-19T09:24:06.830Z,16.30
2023-03-19T09:26:33.365Z,17.20
2023-03-19T09:28:59.833Z,13.88
2023-03-19T09:31:29.089Z,13.95
2023-03-19T09:33:56.131Z,14.35
2023-03-19T09:36:22.589Z,15.40
2023-03-19T09:38:49.064Z,12.05
2023-03-19T09:41:15.486Z,15.60
2023-03-19T09:44:04.876Z,13.57
2023-03-19T09:46:51.394Z,15.18
2023-03-19T09:49:34.046Z,16.35
2023-03-19T09:52:38.975Z,16.77
2023-03-19T09:55:28.646Z,3.20
2023-03-19T09:57:57.376Z,7.35
2023-03-19T10:00:28.889Z,9.15
2023-03-19T10:03:25.441Z,14.65
2023-03-19T10:06:06.897Z,11.13
2023-03-19T10:08:59.935Z,6.15
2023-03-19T10:11:54.246Z,9.77
2023-03-19T10:14:27.180Z,8.82
2023-03-19T10:16:58.175Z,11.23
2023-03-19T10:19:40.852Z,4.63
2023-03-19T10:22:16.759Z,12.30
2023-03-19T10:24:46.598Z,13.35
2023-03-19T10:27:16.168Z,3.78
2023-03-19T10:29:43.238Z,14.55
2023-03-19T10:32:20.012Z,3.13
2023-03-19T10:34:50.442Z,7.38
2023-03-19T10:37:20.451Z,12.05
2023-03-19T10:39:49.382Z,13.30
2023-03-19T10:42:33.320Z,13.75
2023-03-19T10:45:21.978Z,12.30
2023-03-19T10:47:48.403Z,10.25
2023-03-19T10:50:23.220Z,6.60
2023-03-19T10:53:04.401Z,9.93
2023-03-19T10:55:31.739Z,13.65
2023-03-19T10:58:04.071Z,11.68
2023-03-19T11:00:33.375Z,10.90
2023-03-19T11:03:02.027Z,3.10
2023-03-19T11:05:31.954Z,11.60
2023-03-19T11:08:08.207Z,10.07
2023-03-19T11:10:36.248Z,10.48
2023-03-19T11:13:15.991Z,13.25
2023-03-19T11:15:42.658Z,10.52
2023-03-19T11:18:20.941Z,3.28
2023-03-19T11:20:59.742Z,4.57
2023-03-19T11:23:31.596Z,7.85
2023-03-19T11:26:04.592Z,4.32
2023-03-19T11:28:34.516Z,6.30
2023-03-19T11:31:41.688Z,7.22
2023-03-19T11:34:46.727Z,4.10
2023-03-19T11:37:22.520Z,3.75
2023-03-19T11:40:27.798Z,4.10
2023-03-19T11:43:08.756Z,2.53
2023-03-19T11:45:54.284Z,8.10
2023-03-19T11:48:38.397Z,2.92
2023-03-19T11:51:09.854Z,2.78
2023-03-19T11:53:48.965Z,2.15
2023-03-19T11:56:39.959Z,3.40
2023-03-19T11:59:09.399Z,3.55
2023-03-19T12:01:57.943Z,4.25
2023-03-19T12:04:55.509Z,4.78
2023-03-19T12:07:30.143Z,8.68
2023-03-19T12:10:30.195Z,6.63
2023-03-19T12:12:59.231Z,6.80
2023-03-19T12:15:28.471Z,6.68
2023-03-19T12:18:10.440Z,2.55
2023-03-19T12:20:49.034Z,9.45
2023-03-19T12:23:33.445Z,9.18
2023-03-19T12:26:05.094Z,10.65
2023-03-19T12:28:46.716Z,13.95
2023-03-19T12:31:36.548Z,13.05
2023-03-19T12:34:21.862Z,15.38
2023-03-19T12:37:07.808Z,13.35
2023-03-19T12:39:39.632Z,11.93
2023-03-19T12:42:11.381Z,14.35
2023-03-19T12:44:42.727Z,11.77
2023-03-19T12:47:25.071Z,14.65
2023-03-19T12:49:56.988Z,13.05
2023-03-19T12:52:44.614Z,13.50
2023-03-19T12:55:27.216Z,15.00
2023-03-19T12:57:58.099Z,11.30
2023-03-19T13:00:24.520Z,10.30
2023-03-19T13:03:01.896Z,11.77
2023-03-19T13:05:41.640Z,15.65
2023-03-19T13:08:20.598Z,17.63
2023-03-19T13:10:47.044Z,14.50
2023-03-19T13:13:13.521Z,13.63
2023-03-19T13:15:47.834Z,14.80
2023-03-19T13:18:34.978Z,13.90
2023-03-19T13:21:21.889Z,14.30
2023-03-19T13:23:52.604Z,16.42
2023-03-19T13:26:19.522Z,15.18
2023-03-19T13:29:14.725Z,17.13
2023-03-19T13:31:41.728Z,16.20
2023-03-19T13:34:21.443Z,16.55
2023-03-19T13:37:16.258Z,16.13
2023-03-19T13:39:44.442Z,15.40
2023-03-19T13:42:20.018Z,17.13
2023-03-19T13:44:51.556Z,17.30
2023-03-19T13:47:28.837Z,22.40
2023-03-19T13:50:20.423Z,20.52
2023-03-19T13:52:50.392Z,17.30
2023-03-19T13:55:25.824Z,14.63
2023-03-19T13:58:16.952Z,17.05
2023-03-19T14:00:43.494Z,15.27
2023-03-19T14:03:22.318Z,16.80
2023-03-19T14:05:51.074Z,16.63
2023-03-19T14:08:51.818Z,15.60
2023-03-19T14:11:29.063Z,4.43
2023-03-19T14:13:56.296Z,12.27
2023-03-19T14:16:26.682Z,11.88
2023-03-19T14:18:57.531Z,12.40
2023-03-19T14:21:33.793Z,12.35
2023-03-19T14:24:55.925Z,9.55
2023-03-19T14:27:30.587Z,10.27
2023-03-19T14:30:00.589Z,13.02
2023-03-19T14:32:35.031Z,8.68
2023-03-19T14:35:05.866Z,4.90
2023-03-19T14:37:48.949Z,12.27
2023-03-19T14:40:24.502Z,13.45
2023-03-19T14:43:06.479Z,13.93
2023-03-19T14:45:38.569Z,13.27
2023-03-19T14:48:14.070Z,12.63
2023-03-19T14:51:19.312Z,14.50
2023-03-19T14:54:28.260Z,11.85
2023-03-19T14:56:56.936Z,14.05
2023-03-19T14:59:23.469Z,11.57
2023-03-19T15:01:53.551Z,12.57
2023-03-19T15:04:24.022Z,10.98
2023-03-19T15:06:55.564Z,13.73
2023-03-19T15:09:33.766Z,13.77
2023-03-19T15:12:17.041Z,5.80
2023-03-19T15:15:14.058Z,10.98
2023-03-19T15:17:40.848Z,5.05
2023-03-19T15:20:18.616Z,13.95
2023-03-19T15:22:52.977Z,13.88
2023-03-19T15:25:20.245Z,15.47
2023-03-19T15:27:46.823Z,12.93
2023-03-19T15:30:28.489Z,14.40
2023-03-19T15:33:10.492Z,12.68
2023-03-19T15:38:12.065Z,11.13
2023-03-19T15:40:41.188Z,10.65
2023-03-19T15:43:11.148Z,18.15
2023-03-19T15:45:39.105Z,14.70
2023-03-19T15:48:17.121Z,13.50
2023-03-19T15:50:46.214Z,14.93
2023-03-19T15:53:16.796Z,12.40
2023-03-19T15:55:43.561Z,12.18
2023-03-19T15:58:16.879Z,10.25
2023-03-19T16:00:43.682Z,14.52
2023-03-19T16:03:20.825Z,12.85
2023-03-19T16:05:58.516Z,14.60
2023-03-19T16:08:26.844Z,13.95
2023-03-19T16:10:53.769Z,11.13
2023-03-19T16:13:25.865Z,14.05
2023-03-19T16:16:08.590Z,9.70
2023-03-19T16:18:45.558Z,14.88
2023-03-19T16:21:17.964Z,13.10
2023-03-19T16:23:51.451Z,12.38
2023-03-19T16:26:44.128Z,9.73
2023-03-19T16:29:22.680Z,9.57
2023-03-19T16:31:52.222Z,10.85
2023-03-19T16:34:32.118Z,14.98
2023-03-19T16:36:59.498Z,9.60
2023-03-19T16:39:35.046Z,11.23
2023-03-19T16:42:27.879Z,12.80
2023-03-19T16:44:54.538Z,10.68
2023-03-19T16:47:22.655Z,9.77
2023-03-19T16:49:50.981Z,12.95
2023-03-19T16:52:21.648Z,12.90
2023-03-19T16:54:48.617Z,13.75
2023-03-19T16:57:16.934Z,12.85
2023-03-19T16:59:44.298Z,11.90
2023-03-19T17:02:12.246Z,11.32
2023-03-19T17:04:38.893Z,14.20
2023-03-19T17:07:06.119Z,12.85
2023-03-19T17:09:32.935Z,13.20
2023-03-19T17:11:59.959Z,13.30
2023-03-19T17:14:26.460Z,11.38
2023-03-19T17:16:54.462Z,12.57
2023-03-19T17:19:27.158Z,14.45
2023-03-19T17:21:58.070Z,15.30
2023-03-19T17:24:34.389Z,16.20
2023-03-19T17:27:02.970Z,14.45
2023-03-19T17:29:30.534Z,12.85
2023-03-19T17:32:04.192Z,15.23
2023-03-19T17:34:35.795Z,15.30
2023-03-19T17:37:11.018Z,13.63
2023-03-19T17:39:37.484Z,14.35
2023-03-19T17:42:18.188Z,14.98
2023-03-19T17:44:44.672Z,17.48
2023-03-19T17:47:11.687Z,13.90
2023-03-19T17:49:40.102Z,15.45
2023-03-19T17:52:14.657Z,16.75
2023-03-19T17:54:41.158Z,14.95
2023-03-19T17:57:12.552Z,18.58
2023-03-19T17:59:39.109Z,14.50
2023-03-19T18:02:25.216Z,16.73
2023-03-19T18:04:52.717Z,15.60
2023-03-19T18:07:19.377Z,16.95
2023-03-19T18:09:45.886Z,19.85
2023-03-19T18:12:12.410Z,17.65
2023-03-19T18:14:38.873Z,19.90
2023-03-19T18:17:05.396Z,17.50
2023-03-19T18:19:34.760Z,19.15
2023-03-19T18:22:01.274Z,16.73
2023-03-19T18:24:27.802Z,18.60
2023-03-19T18:26:54.243Z,18.30
2023-03-19T18:29:20.830Z,16.92
2023-03-19T18:31:49.123Z,19.60
2023-03-19T18:34:16.967Z,17.65
2023-03-19T18:36:43.669Z,17.20
2023-03-19T18:39:13.867Z,21.15
2023-03-19T18:41:41.099Z,27.30
2023-03-19T18:44:08.457Z,19.08
2023-03-19T18:46:37.355Z,22.10
2023-03-19T18:49:07.167Z,18.05
2023-03-19T18:51:33.629Z,18.73
2023-03-19T18:54:00.504Z,17.95
2023-03-19T18:56:32.984Z,22.23
2023-03-19T18:59:00.866Z,17.75
2023-03-19T19:01:27.749Z,20.10
2023-03-19T19:03:54.640Z,25.10
2023-03-19T19:06:28.291Z,19.20
2023-03-19T19:09:03.543Z,22.77
2023-03-19T19:11:30.225Z,18.85
2023-03-19T19:13:58.718Z,18.70
2023-03-19T19:16:31.839Z,23.75
2023-03-19T19:18:58.413Z,22.98
2023-03-19T19:21:24.914Z,22.33
2023-03-19T19:23:51.403Z,27.05
2023-03-19T19:26:28.738Z,24.58
2023-03-19T19:28:58.732Z,26.02
2023-03-19T19:31:31.510Z,22.60
2023-03-19T19:34:00.103Z,29.55
2023-03-19T19:36:28.057Z,25.27
2023-03-19T19:38:54.982Z,27.73
2023-03-19T19:41:24.476Z,29.38
2023-03-19T19:43:53.465Z,26.33
2023-03-19T19:46:23.343Z,27.13
2023-03-19T19:48:50.437Z,30.10
2023-03-19T19:51:22.981Z,26.58
2023-03-19T19:53:49.804Z,28.40
2023-03-19T19:56:21.783Z,36.90
2023-03-19T19:58:52.010Z,29.23
2023-03-19T20:01:24.924Z,32.05
2023-03-19T20:03:52.512Z,27.15
2023-03-19T20:06:19.804Z,31.00
2023-03-19T20:08:49.289Z,30.33
2023-03-19T20:11:21.578Z,28.45
2023-03-19T20:13:52.064Z,30.58
2023-03-19T20:16:19.817Z,33.92
2023-03-19T20:18:47.625Z,35.97
2023-03-19T20:21:15.644Z,30.27
2023-03-19T20:23:43.978Z,35.08
2023-03-19T20:26:19.525Z,26.35
2023-03-19T20:28:47.108Z,35.22
2023-03-19T20:31:24.836Z,35.08
2023-03-19T20:33:51.564Z,35.92
2023-03-19T20:36:19.510Z,38.63
2023-03-19T20:38:46.102Z,43.55
2023-03-19T20:41:21.673Z,37.03
2023-03-19T20:43:49.122Z,32.33
2023-03-19T20:46:17.602Z,32.85
2023-03-19T20:48:44.157Z,33.15
2023-03-19T20:51:17.975Z,33.78
2023-03-19T20:53:44.443Z,31.77
2023-03-19T20:56:15.953Z,35.17
2023-03-19T20:58:42.560Z,32.30
2023-03-19T21:01:10.714Z,38.20
2023-03-19T21:03:38.167Z,30.00
2023-03-19T21:06:06.922Z,34.65
2023-03-19T21:08:39.919Z,35.17
2023-03-19T21:11:11.415Z,34.47
2023-03-19T21:13:37.936Z,31.23
2023-03-19T21:16:04.597Z,38.50
2023-03-19T21:18:31.099Z,35.95
2023-03-19T21:20:57.991Z,33.22
2023-03-19T21:23:31.834Z,41.83
2023-03-19T21:25:59.959Z,33.90
2023-03-19T21:28:34.630Z,35.67
2023-03-19T21:31:02.310Z,34.65
2023-03-19T21:33:32.887Z,33.03
2023-03-19T21:36:00.883Z,34.83
2023-03-19T21:38:28.184Z,42.13
2023-03-19T21:40:58.464Z,38.17
2023-03-19T21:43:33.896Z,40.35
2023-03-19T21:46:13.915Z,34.22
2023-03-19T21:48:48.362Z,35.45
2023-03-19T21:51:16.487Z,32.90
2023-03-19T21:53:45.526Z,35.63
2023-03-19T21:56:24.522Z,37.83
2023-03-19T21:58:54.153Z,43.22
2023-03-19T22:01:23.788Z,36.90
2023-03-19T22:03:51.857Z,37.20
2023-03-19T22:06:19.194Z,44.53
2023-03-19T22:08:46.754Z,41.53
2023-03-19T22:11:20.661Z,41.70
2023-03-19T22:13:47.946Z,42.33
2023-03-19T22:16:21.387Z,43.15
2023-03-19T22:18:48.743Z,39.17
2023-03-19T22:21:17.945Z,46.88
2023-03-19T22:23:46.474Z,43.47
2023-03-19T22:26:36.043Z,44.22
2023-03-19T22:29:15.553Z,38.88
2023-03-19T22:31:42.629Z,42.40
2023-03-19T22:34:17.205Z,33.30
2023-03-19T22:36:44.293Z,38.87
2023-03-19T22:39:10.874Z,35.20
2023-03-19T22:41:40.365Z,37.78
2023-03-19T22:44:11.324Z,40.38
2023-03-19T22:46:37.881Z,39.10
2023-03-19T22:49:15.444Z,39.72
2023-03-19T22:51:43.705Z,41.25
2023-03-19T22:54:11.961Z,41.03
2023-03-19T22:56:38.643Z,42.75
2023-03-19T22:59:05.275Z,38.03
2023-03-19T23:01:45.145Z,38.83
2023-03-19T23:04:19.564Z,13.05
2023-03-19T23:06:46.809Z,41.20
2023-03-19T23:09:19.454Z,32.78
2023-03-19T23:11:48.176Z,35.47
2023-03-19T23:14:28.467Z,38.72
2023-03-19T23:19:31.006Z,35.33
2023-03-19T23:21:58.838Z,35.00
2023-03-19T23:24:25.744Z,34.63
2023-03-19T23:26:54.810Z,36.90
2023-03-19T23:29:24.693Z,36.70
2023-03-19T23:31:51.884Z,28.40
2023-03-19T23:34:18.884Z,32.70
2023-03-19T23:36:45.704Z,33.45
2023-03-19T23:39:12.211Z,31.70
2023-03-19T23:41:58.932Z,26.38
2023-03-19T23:44:28.892Z,30.50
2023-03-19T23:46:59.399Z,22.10
2023-03-19T23:49:32.221Z,35.83
2023-03-19T23:51:59.155Z,20.55
2023-03-19T23:54:33.723Z,34.33
2023-03-19T23:57:03.998Z,37.70
2023-03-19T23:59:35.697Z,40.50
